Lutherville Timonium, Maryland
Current Conditions -  °F | °C
As of 9:54 AM on Friday 28 Nov 2014 (Local Time) from KMTN Reporting Station
Scattered Clouds Scattered Clouds  
Wind Chill: 32°   Ceiling: Unl
Heat Index: 39°   Visibility: 10mi
Dew Point: 21°   Wind: 13mph
Humidity: 49%   Direction: 320°NW
Pressure: 30.31"   Gusts: 16mph
Location:  39.4211°N, 76.6266°W
Report Text: KMTN 281454Z 32011G14KT 10SM SCT043 SCT100 04/M06 A3031
Loading
Personal Weather Stations






























Interactive Weather Map New forecast layout! Learn more

10-Day Weather Forecast

Advertisements
Track Severe Weather on mobile